Time;durP1;ratioP1;P1;durP2;ratioP2;P2;SDS_P1;SDS_P2;PMS_P1;PMS_P2;Temp;Humidity;BMP_temperature;BMP_pressure;BME280_temperature;BME280_humidity;BME280_pressure;Samples;Min_cycle;Max_cycle;Signal;HPM_P1;HPM_P2
2021/03/03 00:01:08;;;;;;;205.07;84.38;;;-1.10;99.90;;;;;;5013608;28;20064;-73
2021/03/03 00:03:33;;;;;;;241.50;93.38;;;-1.10;99.90;;;;;;5013511;28;20102;-72
2021/03/03 00:05:59;;;;;;;223.25;94.20;;;-1.10;99.90;;;;;;4995918;28;20476;-73
2021/03/03 00:08:24;;;;;;;206.77;84.28;;;-1.10;99.90;;;;;;5013543;28;20021;-73
2021/03/03 00:10:50;;;;;;;214.18;87.13;;;-1.10;99.90;;;;;;4995886;28;20018;-74
2021/03/03 00:13:16;;;;;;;209.52;88.10;;;-1.10;99.90;;;;;;5013510;28;20105;-73
2021/03/03 00:15:41;;;;;;;207.13;85.32;;;-1.20;99.90;;;;;;4995704;28;20026;-72
2021/03/03 00:18:08;;;;;;;195.05;77.22;;;-1.20;99.90;;;;;;5012115;28;20049;-73
2021/03/03 00:20:34;;;;;;;190.32;75.07;;;-1.30;99.90;;;;;;4995551;28;20034;-72
2021/03/03 00:23:00;;;;;;;176.52;74.88;;;-1.30;99.90;;;;;;5013387;28;20076;-73
2021/03/03 00:25:25;;;;;;;173.13;76.18;;;-1.30;99.90;;;;;;5011960;28;20054;-70
2021/03/03 00:27:51;;;;;;;175.73;72.03;;;-1.40;99.90;;;;;;5013410;28;20049;-70
2021/03/03 00:30:18;;;;;;;186.40;81.20;;;-1.30;99.90;;;;;;5013266;28;20026;-69
2021/03/03 00:32:43;;;;;;;174.80;74.85;;;-1.40;99.90;;;;;;5012692;28;20414;-70
2021/03/03 00:35:10;;;;;;;194.65;79.75;;;-1.40;99.90;;;;;;5013493;28;20045;-70
2021/03/03 00:37:36;;;;;;;166.15;72.10;;;-1.30;99.90;;;;;;4995587;28;20030;-70
2021/03/03 00:40:03;;;;;;;201.13;83.88;;;-1.40;99.90;;;;;;5013050;28;20064;-69
2021/03/03 00:42:28;;;;;;;201.27;82.45;;;-1.40;99.90;;;;;;5012924;28;20418;-70
2021/03/03 00:44:54;;;;;;;184.07;77.80;;;-1.40;99.90;;;;;;5012772;28;20018;-70
2021/03/03 00:47:20;;;;;;;172.65;75.47;;;-1.50;99.90;;;;;;4995395;28;20030;-70
2021/03/03 00:49:46;;;;;;;167.48;73.53;;;-1.50;99.90;;;;;;5012942;28;20099;-70
2021/03/03 00:52:11;;;;;;;165.43;70.25;;;-1.50;99.90;;;;;;5013085;28;20511;-71
2021/03/03 00:54:37;;;;;;;176.68;74.53;;;-1.50;99.90;;;;;;4995309;28;20069;-69
2021/03/03 00:57:03;;;;;;;173.32;72.75;;;-1.40;99.90;;;;;;5015852;28;20018;-71
2021/03/03 00:59:28;;;;;;;163.68;72.07;;;-1.40;99.90;;;;;;4999199;28;20033;-70
2021/03/03 01:01:54;;;;;;;160.68;66.80;;;-1.50;99.90;;;;;;5017162;28;20032;-74
2021/03/03 01:04:19;;;;;;;157.60;70.53;;;-1.50;99.90;;;;;;5016829;28;20026;-72
2021/03/03 01:06:45;;;;;;;166.45;71.47;;;-1.60;99.90;;;;;;5016826;28;20068;-73
2021/03/03 01:09:11;;;;;;;174.85;68.78;;;-1.60;99.90;;;;;;4999201;28;20054;-72
2021/03/03 01:11:36;;;;;;;163.00;70.70;;;-1.60;99.90;;;;;;5016693;28;20026;-73
2021/03/03 01:14:02;;;;;;;167.35;70.55;;;-1.60;99.90;;;;;;5016450;28;20053;-72
2021/03/03 01:16:28;;;;;;;154.27;67.55;;;-1.70;99.90;;;;;;5016569;28;20541;-72
2021/03/03 01:18:54;;;;;;;150.45;63.22;;;-1.70;99.90;;;;;;5016512;28;20033;-72
2021/03/03 01:21:20;;;;;;;151.40;64.63;;;-1.70;99.90;;;;;;5016422;28;20037;-73
2021/03/03 01:23:45;;;;;;;156.65;64.40;;;-1.80;99.90;;;;;;5016434;28;20034;-73
2021/03/03 01:26:11;;;;;;;155.32;65.97;;;-1.80;99.90;;;;;;5016566;28;20030;-73
2021/03/03 01:28:37;;;;;;;149.32;65.18;;;-1.80;99.90;;;;;;4998740;28;20061;-72
2021/03/03 01:31:02;;;;;;;146.93;66.13;;;-1.80;99.90;;;;;;5016351;28;20026;-72
2021/03/03 01:33:30;;;;;;;147.38;62.28;;;-1.80;99.90;;;;;;5016225;28;20056;-72
2021/03/03 01:35:56;;;;;;;134.32;59.42;;;-1.90;99.90;;;;;;4998906;28;20112;-72
2021/03/03 01:38:23;;;;;;;125.60;57.05;;;-1.90;99.90;;;;;;5016234;28;20391;-73
2021/03/03 01:40:49;;;;;;;139.00;61.42;;;-1.90;99.90;;;;;;5016057;28;20082;-72
2021/03/03 01:43:15;;;;;;;149.55;63.42;;;-1.90;99.90;;;;;;4998586;28;20057;-73
2021/03/03 01:45:40;;;;;;;150.05;62.80;;;-1.90;99.90;;;;;;4998282;28;20049;-72
2021/03/03 01:48:07;;;;;;;167.38;68.07;;;-1.90;99.90;;;;;;5016104;28;20044;-74
2021/03/03 01:50:34;;;;;;;152.20;67.05;;;-1.90;99.90;;;;;;4998280;28;20049;-72
2021/03/03 01:53:00;;;;;;;149.00;60.85;;;-1.90;99.90;;;;;;4998411;28;20533;-72
2021/03/03 01:55:26;;;;;;;132.27;60.35;;;-2.00;99.90;;;;;;5015832;28;20108;-74
2021/03/03 01:57:52;;;;;;;140.00;64.88;;;-2.00;99.90;;;;;;4998282;28;20022;-73
2021/03/03 02:00:19;;;;;;;150.95;65.10;;;-2.00;99.90;;;;;;4998093;28;20038;-72
2021/03/03 02:02:44;;;;;;;153.18;63.65;;;-2.00;99.90;;;;;;5015719;28;20010;-73
2021/03/03 02:05:11;;;;;;;137.02;57.78;;;-2.00;99.90;;;;;;5015796;28;20053;-72
2021/03/03 02:07:43;;;;;;;124.15;50.78;;;-2.00;99.90;;;;;;5015706;28;20036;-72
2021/03/03 02:10:18;;;;;;;145.50;57.50;;;-2.00;99.90;;;;;;5015745;28;20383;-72
2021/03/03 02:12:59;;;;;;;129.27;57.47;;;-2.10;99.90;;;;;;4998023;28;20356;-72
2021/03/03 02:15:26;;;;;;;142.57;63.08;;;-2.10;99.90;;;;;;5015559;28;20033;-72
2021/03/03 02:17:54;;;;;;;135.15;55.70;;;-2.10;99.90;;;;;;5015494;28;20475;-72
2021/03/03 02:20:24;;;;;;;119.40;54.30;;;-2.10;99.90;;;;;;5015369;28;20068;-72
2021/03/03 02:23:24;;;;;;;131.82;56.83;;;-2.10;99.90;;;;;;5015547;28;20026;-72
2021/03/03 02:25:50;;;;;;;123.53;55.70;;;-2.20;99.90;;;;;;5015282;28;20030;-72
2021/03/03 02:28:16;;;;;;;123.00;54.03;;;-2.20;99.90;;;;;;4997790;28;20022;-72
2021/03/03 02:30:44;;;;;;;121.70;52.90;;;-2.20;99.90;;;;;;5015215;28;20109;-72
2021/03/03 02:33:12;;;;;;;126.00;52.33;;;-2.30;99.90;;;;;;4997693;28;20022;-72
2021/03/03 02:35:39;;;;;;;116.50;49.47;;;-2.20;99.90;;;;;;5015622;28;20030;-72
2021/03/03 02:38:06;;;;;;;113.97;47.95;;;-2.30;99.90;;;;;;5014468;28;20510;-73
2021/03/03 02:40:33;;;;;;;116.65;48.65;;;-2.30;99.90;;;;;;5014958;28;20056;-72
2021/03/03 02:42:59;;;;;;;115.10;48.22;;;-2.30;99.90;;;;;;5015022;28;20025;-72
2021/03/03 02:45:26;;;;;;;105.22;47.22;;;-2.30;99.90;;;;;;5014939;28;20369;-73
2021/03/03 02:47:53;;;;;;;113.57;47.38;;;-2.30;99.90;;;;;;5014989;28;20033;-72
2021/03/03 02:50:20;;;;;;;103.22;45.08;;;-2.30;99.90;;;;;;5014912;28;20029;-72
2021/03/03 02:53:03;;;;;;;112.45;45.30;;;-2.40;99.90;;;;;;4997312;28;20080;-72
2021/03/03 02:55:30;;;;;;;108.50;44.30;;;-2.40;99.90;;;;;;5014796;28;20025;-71
2021/03/03 02:57:57;;;;;;;108.07;44.05;;;-2.40;99.90;;;;;;4997240;28;20033;-72
2021/03/03 03:00:26;;;;;;;110.35;45.95;;;-2.40;99.90;;;;;;4996990;28;20052;-71
2021/03/03 03:03:16;;;;;;;112.05;43.58;;;-2.50;99.90;;;;;;5014628;28;20419;-71
2021/03/03 03:05:45;;;;;;;102.72;44.25;;;-2.50;99.90;;;;;;5013791;28;20038;-72
2021/03/03 03:08:13;;;;;;;101.40;42.90;;;-2.50;99.90;;;;;;5014646;28;20068;-71
2021/03/03 03:10:41;;;;;;;92.30;41.55;;;-2.50;99.90;;;;;;5014487;28;20490;-72
2021/03/03 03:13:09;;;;;;;112.82;48.40;;;-2.50;99.90;;;;;;5014515;28;20057;-72
2021/03/03 03:15:36;;;;;;;119.38;51.00;;;-2.50;99.90;;;;;;4996725;28;20030;-72
2021/03/03 03:18:15;;;;;;;123.32;46.17;;;-2.50;99.90;;;;;;5014322;28;20073;-72
2021/03/03 03:20:42;;;;;;;116.00;46.88;;;-2.50;99.90;;;;;;5014093;28;20468;-72
2021/03/03 03:23:09;;;;;;;97.90;41.08;;;-2.50;99.90;;;;;;5014078;28;20561;-72
2021/03/03 03:25:38;;;;;;;101.75;42.35;;;-2.50;99.90;;;;;;5012987;28;20018;-72
2021/03/03 03:28:04;;;;;;;115.43;45.13;;;-2.50;99.90;;;;;;4996619;28;20037;-72
2021/03/03 03:30:31;;;;;;;103.00;44.65;;;-2.60;99.90;;;;;;5014043;28;20030;-71
2021/03/03 03:32:58;;;;;;;111.28;45.42;;;-2.60;99.90;;;;;;5014176;28;20029;-72
2021/03/03 03:35:26;;;;;;;119.43;44.95;;;-2.60;99.90;;;;;;5014308;28;20391;-71
2021/03/03 03:37:53;;;;;;;114.45;43.92;;;-2.70;99.90;;;;;;4996452;28;20462;-71
2021/03/03 03:40:19;;;;;;;109.70;44.67;;;-2.70;99.90;;;;;;5013873;28;20044;-71
2021/03/03 03:42:46;;;;;;;117.18;48.55;;;-2.70;99.90;;;;;;4996408;28;20023;-72
2021/03/03 03:45:12;;;;;;;110.60;44.35;;;-2.70;99.90;;;;;;5013912;28;20587;-72
2021/03/03 03:47:41;;;;;;;115.75;44.53;;;-2.70;99.90;;;;;;5013791;28;20037;-73
2021/03/03 03:50:07;;;;;;;108.97;43.17;;;-2.70;99.90;;;;;;5013793;28;20022;-72
2021/03/03 03:52:34;;;;;;;107.78;44.10;;;-2.80;99.90;;;;;;4996176;28;20446;-72
2021/03/03 03:55:00;;;;;;;113.90;44.83;;;-2.80;99.90;;;;;;4996311;28;20041;-72
2021/03/03 03:57:25;;;;;;;122.43;46.28;;;-2.80;99.90;;;;;;5013681;28;20022;-73
2021/03/03 03:59:51;;;;;;;156.38;61.78;;;-2.80;99.90;;;;;;4994927;28;20474;-72
2021/03/03 04:02:17;;;;;;;134.55;50.47;;;-2.90;99.90;;;;;;5013464;28;20443;-70
2021/03/03 04:04:43;;;;;;;127.07;48.38;;;-2.90;99.90;;;;;;5013522;28;20041;-69
2021/03/03 04:07:09;;;;;;;117.88;46.05;;;-2.90;99.90;;;;;;5012717;28;20379;-72
2021/03/03 04:09:34;;;;;;;139.88;48.85;;;-2.90;99.90;;;;;;4995802;28;20022;-72
2021/03/03 04:12:01;;;;;;;138.13;49.35;;;-2.90;99.90;;;;;;4995928;28;20084;-72
2021/03/03 04:14:28;;;;;;;115.68;46.45;;;-2.90;99.90;;;;;;4995756;28;20121;-71
2021/03/03 04:16:54;;;;;;;112.97;48.60;;;-2.90;99.90;;;;;;5013480;28;20030;-72
2021/03/03 04:19:19;;;;;;;119.93;47.67;;;-2.90;99.90;;;;;;5013233;28;20026;-72
2021/03/03 04:21:46;;;;;;;110.32;43.67;;;-3.00;99.90;;;;;;5013267;28;20057;-72
2021/03/03 04:24:12;;;;;;;105.88;44.10;;;-3.00;99.90;;;;;;5013322;28;20029;-72
2021/03/03 04:26:37;;;;;;;103.75;43.40;;;-3.00;99.90;;;;;;4995661;28;20025;-70
2021/03/03 04:29:03;;;;;;;113.82;47.30;;;-3.00;99.90;;;;;;4995665;28;20018;-69
2021/03/03 04:31:29;;;;;;;123.18;45.47;;;-3.00;99.90;;;;;;5011134;28;20040;-69
2021/03/03 04:33:55;;;;;;;117.32;47.55;;;-3.10;99.90;;;;;;5013117;28;20487;-69
2021/03/03 04:36:21;;;;;;;113.88;44.28;;;-3.10;99.90;;;;;;5013234;28;20553;-69
2021/03/03 04:38:46;;;;;;;110.68;45.30;;;-3.10;99.90;;;;;;5013068;28;20026;-69
2021/03/03 04:41:12;;;;;;;122.13;47.97;;;-3.10;99.90;;;;;;5013078;28;20480;-69
2021/03/03 04:43:37;;;;;;;111.43;46.95;;;-3.10;99.90;;;;;;5011824;28;20034;-69
2021/03/03 04:46:03;;;;;;;116.38;44.92;;;-3.10;99.90;;;;;;5013210;28;20444;-71
2021/03/03 04:48:29;;;;;;;116.95;46.53;;;-3.10;99.90;;;;;;4995362;28;20041;-69
2021/03/03 04:50:55;;;;;;;119.32;47.55;;;-3.10;99.90;;;;;;5013115;28;20053;-70
2021/03/03 04:53:23;;;;;;;127.78;48.63;;;-3.20;99.90;;;;;;4995090;28;20040;-69
2021/03/03 04:55:48;;;;;;;120.18;47.45;;;-3.20;99.90;;;;;;4995239;28;20018;-69
2021/03/03 04:58:14;;;;;;;119.07;46.45;;;-3.20;99.90;;;;;;5013051;28;20030;-72
2021/03/03 05:00:40;;;;;;;120.80;49.88;;;-3.30;99.90;;;;;;4995110;28;20041;-69
2021/03/03 05:03:06;;;;;;;122.38;48.60;;;-3.30;99.90;;;;;;4995450;28;20018;-70
2021/03/03 05:05:31;;;;;;;124.22;50.88;;;-3.30;99.90;;;;;;5012842;28;20030;-70
2021/03/03 05:07:57;;;;;;;123.03;49.83;;;-3.30;99.90;;;;;;5012899;28;20026;-70
2021/03/03 05:10:22;;;;;;;117.28;48.33;;;-3.30;99.90;;;;;;5012739;28;20041;-69
2021/03/03 05:12:48;;;;;;;117.60;47.42;;;-3.30;99.90;;;;;;4997379;28;20488;-71
2021/03/03 05:15:14;;;;;;;122.47;48.50;;;-3.30;99.90;;;;;;4993240;28;20358;-70
2021/03/03 05:17:40;;;;;;;132.80;51.40;;;-3.30;99.90;;;;;;4993140;28;20026;-69
2021/03/03 05:20:07;;;;;;;128.43;54.58;;;-3.20;99.90;;;;;;4993116;28;20045;-70
2021/03/03 05:22:32;;;;;;;125.93;50.20;;;-3.30;99.90;;;;;;4993125;28;20118;-70
2021/03/03 05:24:58;;;;;;;118.40;47.72;;;-3.30;99.90;;;;;;4991729;28;20116;-70
2021/03/03 05:27:24;;;;;;;141.48;49.97;;;-3.30;99.90;;;;;;5008108;28;20037;-72
2021/03/03 05:29:49;;;;;;;127.40;50.55;;;-3.30;99.90;;;;;;4992944;28;20022;-69
2021/03/03 05:32:15;;;;;;;122.20;52.55;;;-3.30;99.90;;;;;;4993044;28;20030;-71
2021/03/03 05:34:41;;;;;;;125.28;49.97;;;-3.20;99.90;;;;;;5007917;28;20506;-70
2021/03/03 05:37:06;;;;;;;121.05;47.72;;;-3.30;99.90;;;;;;4995111;28;20053;-70
2021/03/03 05:39:32;;;;;;;124.30;49.00;;;-3.20;99.90;;;;;;5012443;28;20101;-69
2021/03/03 05:42:02;;;;;;;131.88;54.45;;;-3.30;99.90;;;;;;4995945;28;20022;-70
2021/03/03 05:44:28;;;;;;;115.60;48.47;;;-3.20;99.90;;;;;;4998522;28;20053;-70
2021/03/03 05:46:56;;;;;;;121.35;50.90;;;-3.20;99.90;;;;;;5016156;28;20133;-71
2021/03/03 05:49:25;;;;;;;115.53;49.85;;;-3.20;99.90;;;;;;5015992;28;20026;-69
2021/03/03 05:51:53;;;;;;;113.70;46.53;;;-3.20;99.90;;;;;;5016071;28;20029;-70
2021/03/03 05:54:20;;;;;;;132.80;51.63;;;-3.20;99.90;;;;;;5014730;28;20018;-69
2021/03/03 05:56:46;;;;;;;126.93;49.58;;;-3.20;99.90;;;;;;4998323;28;20013;-70
2021/03/03 05:59:16;;;;;;;134.90;52.20;;;-3.20;99.90;;;;;;5015908;28;20037;-70
2021/03/03 06:01:46;;;;;;;115.03;47.45;;;-3.20;99.90;;;;;;5014514;28;20123;-70
2021/03/03 06:04:12;;;;;;;118.10;49.53;;;-3.10;99.90;;;;;;5005141;28;20042;-70
2021/03/03 06:06:44;;;;;;;131.18;49.60;;;-3.10;99.90;;;;;;4994543;28;20080;-70
2021/03/03 06:09:10;;;;;;;125.75;51.70;;;-3.00;99.90;;;;;;4996219;28;20554;-70
2021/03/03 06:11:36;;;;;;;128.50;54.40;;;-2.90;99.90;;;;;;4976901;28;20058;-70
2021/03/03 06:14:02;;;;;;;126.55;51.22;;;-2.90;99.90;;;;;;4995483;28;20046;-70
2021/03/03 06:16:28;;;;;;;128.02;53.05;;;-2.80;99.90;;;;;;4996406;28;20022;-71
2021/03/03 06:18:55;;;;;;;140.40;51.75;;;-2.70;99.90;;;;;;4995415;28;20033;-71
2021/03/03 06:21:31;;;;;;;130.07;50.92;;;-2.70;99.90;;;;;;4995095;28;20058;-70
2021/03/03 06:24:07;;;;;;;122.05;49.42;;;-2.60;99.90;;;;;;4995454;28;20018;-70
2021/03/03 06:26:34;;;;;;;125.45;49.83;;;-2.60;99.90;;;;;;4995311;28;20046;-71
2021/03/03 06:29:01;;;;;;;97.22;42.33;;;-2.50;99.90;;;;;;4995233;28;20028;-70
2021/03/03 06:31:33;;;;;;;114.10;43.80;;;-2.40;99.90;;;;;;4985639;28;20495;-71
2021/03/03 06:34:15;;;;;;;129.77;50.70;;;-2.30;99.90;;;;;;4994109;28;20065;-70
2021/03/03 06:36:47;;;;;;;173.82;67.50;;;-2.20;99.90;;;;;;4996176;28;20022;-70
2021/03/03 06:39:35;;;;;;;256.73;90.85;;;-2.10;99.90;;;;;;4995439;28;20388;-70
2021/03/03 06:42:02;;;;;;;298.83;100.53;;;-1.90;99.90;;;;;;4993768;28;20069;-70
2021/03/03 06:44:47;;;;;;;331.92;105.00;;;-1.70;99.90;;;;;;4993747;28;20077;-71
2021/03/03 06:47:13;;;;;;;355.08;126.28;;;-1.50;99.90;;;;;;4994293;28;20022;-71
2021/03/03 06:49:39;;;;;;;345.40;116.55;;;-1.30;99.90;;;;;;5003426;28;20387;-71
2021/03/03 06:52:05;;;;;;;391.67;122.85;;;-1.10;99.90;;;;;;5005100;28;20097;-72
2021/03/03 06:54:32;;;;;;;279.58;94.70;;;-0.90;99.90;;;;;;5005346;28;20025;-71
2021/03/03 06:56:58;;;;;;;242.73;84.88;;;-0.80;99.90;;;;;;5003400;28;20038;-71
2021/03/03 06:59:30;;;;;;;244.85;91.53;;;-0.60;99.90;;;;;;4999774;28;20022;-71
2021/03/03 07:02:16;;;;;;;214.35;83.70;;;-0.30;99.90;;;;;;5001212;28;20510;-71
2021/03/03 07:04:45;;;;;;;208.43;79.45;;;-0.10;99.90;;;;;;4987885;28;20042;-70
2021/03/03 07:07:12;;;;;;;197.73;84.43;;;0.10;99.90;;;;;;4993448;28;20026;-71
2021/03/03 07:10:01;;;;;;;199.52;81.47;;;0.30;99.90;;;;;;4990970;28;20495;-70
2021/03/03 07:12:30;;;;;;;197.95;77.55;;;0.50;99.90;;;;;;4992111;28;20109;-70
2021/03/03 07:15:03;;;;;;;195.18;83.80;;;0.70;99.90;;;;;;4983389;28;20031;-70
2021/03/03 07:17:32;;;;;;;202.95;81.95;;;1.00;99.90;;;;;;4992947;28;20030;-70
2021/03/03 07:20:04;;;;;;;204.20;88.40;;;1.20;99.90;;;;;;4992943;28;20046;-70
2021/03/03 07:22:34;;;;;;;271.80;115.37;;;1.30;99.90;;;;;;4992855;28;20057;-72
2021/03/03 07:25:00;;;;;;;331.65;146.35;;;1.50;99.90;;;;;;4992530;28;20030;-71
2021/03/03 07:27:26;;;;;;;394.00;169.45;;;1.70;99.90;;;;;;4992698;28;20369;-72
2021/03/03 07:29:55;;;;;;;354.95;151.52;;;1.90;99.90;;;;;;4993913;28;20030;-71
2021/03/03 07:32:21;;;;;;;322.88;132.82;;;2.10;99.90;;;;;;4993834;28;20027;-71
2021/03/03 07:34:49;;;;;;;186.93;84.53;;;2.30;99.90;;;;;;4993653;28;20049;-71
2021/03/03 07:37:17;;;;;;;182.35;79.05;;;2.50;99.90;;;;;;4993847;28;20365;-71
2021/03/03 07:39:46;;;;;;;213.95;97.28;;;2.70;99.90;;;;;;4984216;28;20038;-71
2021/03/03 07:42:19;;;;;;;224.15;96.78;;;2.90;99.90;;;;;;4993790;28;20480;-71
2021/03/03 07:44:46;;;;;;;178.57;79.85;;;3.10;99.90;;;;;;4985440;28;20022;-71
2021/03/03 07:47:14;;;;;;;175.70;81.30;;;3.30;99.90;;;;;;4976414;28;20027;-71
2021/03/03 07:49:41;;;;;;;169.57;72.60;;;3.50;99.90;;;;;;4993640;28;20453;-70
2021/03/03 07:52:07;;;;;;;156.52;67.25;;;3.70;99.90;;;;;;4988130;28;20472;-71
2021/03/03 07:54:33;;;;;;;146.07;62.95;;;3.90;99.90;;;;;;4993539;28;20061;-71
2021/03/03 07:57:03;;;;;;;141.43;62.40;;;4.00;99.90;;;;;;4993537;28;20057;-71
2021/03/03 07:59:30;;;;;;;149.77;66.15;;;4.20;99.90;;;;;;4993316;28;20026;-70
2021/03/03 08:01:56;;;;;;;133.27;59.83;;;4.40;99.90;;;;;;4980077;28;20019;-71
2021/03/03 08:04:41;;;;;;;124.18;57.35;;;4.50;99.90;;;;;;4993167;28;20034;-71
2021/03/03 08:07:26;;;;;;;114.15;50.58;;;4.70;99.90;;;;;;4992021;28;20048;-70
2021/03/03 08:10:13;;;;;;;102.82;48.75;;;4.80;99.50;;;;;;4993244;28;20028;-70
2021/03/03 08:13:02;;;;;;;98.10;47.80;;;5.00;97.00;;;;;;4993318;28;20113;-70
2021/03/03 08:15:44;;;;;;;103.20;45.20;;;5.20;96.50;;;;;;4990842;28;20026;-71
2021/03/03 08:18:13;;;;;;;82.00;40.13;;;5.40;95.50;;;;;;4993276;28;20022;-71
2021/03/03 08:20:46;;;;;;;76.38;36.63;;;5.60;90.80;;;;;;4993004;28;20038;-70
2021/03/03 08:23:32;;;;;;;76.93;36.05;;;5.70;86.40;;;;;;4993275;28;20039;-71
2021/03/03 08:26:01;;;;;;;74.75;34.45;;;5.90;82.80;;;;;;4991541;28;20027;-70
2021/03/03 08:29:00;;;;;;;80.38;37.67;;;6.00;80.20;;;;;;4975440;28;20471;-71
2021/03/03 08:31:26;;;;;;;68.95;33.80;;;6.10;77.70;;;;;;4977384;28;20088;-71
2021/03/03 08:33:52;;;;;;;73.40;34.63;;;6.30;75.00;;;;;;4993003;28;20383;-71
2021/03/03 08:36:21;;;;;;;63.55;32.88;;;6.30;75.20;;;;;;4992431;28;20026;-71
2021/03/03 08:38:55;;;;;;;75.90;35.70;;;6.50;74.20;;;;;;4993147;28;20030;-72
2021/03/03 08:41:29;;;;;;;67.95;33.40;;;6.60;73.40;;;;;;4991526;28;20042;-71
2021/03/03 08:44:15;;;;;;;69.10;33.15;;;6.70;71.10;;;;;;4993110;28;20534;-70
2021/03/03 08:46:41;;;;;;;72.18;30.48;;;6.80;70.40;;;;;;4973706;28;20026;-71
2021/03/03 08:49:06;;;;;;;74.75;32.88;;;6.90;69.30;;;;;;4992702;28;20388;-71
2021/03/03 08:51:43;;;;;;;74.82;35.75;;;7.00;69.50;;;;;;4991421;28;20400;-72
2021/03/03 08:54:10;;;;;;;67.10;31.17;;;7.10;69.50;;;;;;4992650;28;20487;-71
2021/03/03 08:56:43;;;;;;;71.88;33.03;;;7.20;68.30;;;;;;4991330;28;20396;-71
2021/03/03 08:59:11;;;;;;;;;;;7.30;68.30;;;;;;4993226;28;20085;-71
2021/03/03 09:01:56;;;;;;;64.20;31.08;;;7.40;67.90;;;;;;4983108;28;19953;-71
2021/03/03 09:04:48;;;;;;;63.20;30.95;;;7.50;67.00;;;;;;4992504;28;20026;-70
2021/03/03 09:07:29;;;;;;;70.88;36.75;;;7.60;66.70;;;;;;4992645;28;20022;-72
2021/03/03 09:10:10;;;;;;;62.33;31.85;;;7.80;67.00;;;;;;4992641;28;20030;-71
2021/03/03 09:12:41;;;;;;;77.18;33.60;;;7.90;66.40;;;;;;4992777;28;20022;-71
2021/03/03 09:15:10;;;;;;;77.00;35.00;;;8.00;65.70;;;;;;4992471;28;20038;-71
2021/03/03 09:17:36;;;;;;;69.93;35.00;;;8.10;65.00;;;;;;4990991;28;20027;-71
2021/03/03 09:20:15;;;;;;;79.03;36.47;;;8.20;64.80;;;;;;4996098;28;20060;-70
2021/03/03 09:22:43;;;;;;;74.68;34.30;;;8.30;64.60;;;;;;4996403;28;20046;-71
2021/03/03 09:25:20;;;;;;;70.20;32.83;;;8.40;64.20;;;;;;4995905;28;20026;-71
2021/03/03 09:27:49;;;;;;;70.43;34.00;;;8.40;62.80;;;;;;4994297;28;20014;-71
2021/03/03 09:30:15;;;;;;;63.92;30.50;;;8.50;62.70;;;;;;4978802;28;20434;-71
2021/03/03 09:32:41;;;;;;;75.95;34.20;;;8.60;62.60;;;;;;4994462;28;20488;-71
2021/03/03 09:35:08;;;;;;;69.07;34.97;;;8.80;61.50;;;;;;4994984;28;20030;-71
2021/03/03 09:37:43;;;;;;;70.15;32.65;;;8.80;61.60;;;;;;4996038;28;20041;-72
2021/03/03 09:40:11;;;;;;;63.05;32.08;;;8.90;61.50;;;;;;4996013;28;20038;-71
2021/03/03 09:42:41;;;;;;;65.57;30.98;;;9.10;62.00;;;;;;4995987;28;20472;-70
2021/03/03 09:45:15;;;;;;;64.57;30.55;;;9.20;60.60;;;;;;4994549;28;20026;-71
2021/03/03 09:47:42;;;;;;;68.68;31.63;;;9.20;59.30;;;;;;4992066;28;20023;-71
2021/03/03 09:50:18;;;;;;;57.05;29.50;;;9.30;59.30;;;;;;4995713;28;20126;-72
2021/03/03 09:52:46;;;;;;;64.05;29.60;;;9.50;59.60;;;;;;4994620;28;20149;-71
2021/03/03 09:55:14;;;;;;;58.10;29.80;;;9.60;59.60;;;;;;4995617;28;20365;-71
2021/03/03 09:57:42;;;;;;;59.15;27.65;;;9.70;59.20;;;;;;4990822;28;20026;-72
2021/03/03 10:00:14;;;;;;;58.15;28.98;;;9.80;58.10;;;;;;4994570;28;20177;-72
2021/03/03 10:02:48;;;;;;;64.77;29.80;;;10.00;58.00;;;;;;4995119;28;20026;-72
2021/03/03 10:05:18;;;;;;;56.55;26.63;;;10.10;58.40;;;;;;4978131;28;20779;-71
2021/03/03 10:07:52;;;;;;;47.40;24.67;;;10.20;57.70;;;;;;4991460;28;20026;-72
2021/03/03 10:10:21;;;;;;;54.45;26.05;;;10.30;56.10;;;;;;4973917;28;20057;-71
2021/03/03 10:12:48;;;;;;;52.97;27.35;;;10.30;55.80;;;;;;4993474;28;20147;-72
2021/03/03 10:15:21;;;;;;;46.08;24.40;;;10.40;54.60;;;;;;4995363;28;20444;-71
2021/03/03 10:17:54;;;;;;;49.63;24.83;;;10.50;55.10;;;;;;4984718;28;20452;-71
2021/03/03 10:20:41;;;;;;;45.85;23.10;;;10.60;55.20;;;;;;4995341;28;20049;-71
2021/03/03 10:23:21;;;;;;;46.03;22.17;;;10.70;53.60;;;;;;4993790;28;20026;-71
2021/03/03 10:25:56;;;;;;;48.22;23.98;;;10.80;53.40;;;;;;4995242;28;20026;-72
2021/03/03 10:28:25;;;;;;;49.25;24.63;;;10.90;53.00;;;;;;4992838;28;20030;-69
2021/03/03 10:30:52;;;;;;;43.83;22.85;;;11.00;52.40;;;;;;4994049;28;20049;-69
2021/03/03 10:33:28;;;;;;;41.47;21.83;;;11.10;52.00;;;;;;4994851;28;20536;-69
2021/03/03 10:35:56;;;;;;;54.95;24.55;;;11.20;51.60;;;;;;4995781;28;20041;-69
2021/03/03 10:38:23;;;;;;;44.10;21.65;;;11.30;50.90;;;;;;4980255;28;20057;-69
2021/03/03 10:40:54;;;;;;;49.53;21.92;;;11.40;50.50;;;;;;4993518;28;20133;-69
2021/03/03 10:43:22;;;;;;;44.58;20.83;;;11.50;49.60;;;;;;4995008;28;20034;-69
2021/03/03 10:45:49;;;;;;;41.53;20.02;;;11.50;49.70;;;;;;4994722;28;20026;-69
2021/03/03 10:48:25;;;;;;;38.90;20.30;;;11.60;49.80;;;;;;4994476;28;20022;-69
2021/03/03 10:50:51;;;;;;;31.15;16.17;;;11.70;48.90;;;;;;4994097;28;20049;-70
2021/03/03 10:53:17;;;;;;;27.65;13.55;;;11.90;47.40;;;;;;4994874;28;20037;-70
2021/03/03 10:55:43;;;;;;;37.90;19.25;;;12.00;44.70;;;;;;4994618;28;20030;-69
2021/03/03 10:58:14;;;;;;;36.05;19.10;;;12.00;47.40;;;;;;4994520;28;20559;-70
2021/03/03 11:00:55;;;;;;;28.60;16.60;;;12.10;46.90;;;;;;4992768;28;20038;-69
2021/03/03 11:03:20;;;;;;;35.28;17.10;;;12.10;45.20;;;;;;4993292;28;20424;-70
2021/03/03 11:05:54;;;;;;;36.85;18.92;;;12.10;45.50;;;;;;4977098;28;20181;-71
2021/03/03 11:08:20;;;;;;;28.25;15.13;;;12.20;45.60;;;;;;4992383;28;20497;-69
2021/03/03 11:10:47;;;;;;;36.20;17.88;;;12.30;46.40;;;;;;4980640;28;20022;-69
2021/03/03 11:13:13;;;;;;;31.23;15.45;;;12.30;44.90;;;;;;4994545;28;20022;-70
2021/03/03 11:15:44;;;;;;;29.00;13.02;;;12.30;45.20;;;;;;4977276;28;20027;-69
2021/03/03 11:18:10;;;;;;;38.65;14.45;;;12.50;45.40;;;;;;4993996;28;20032;-69
2021/03/03 11:20:36;;;;;;;22.35;12.25;;;12.50;45.40;;;;;;4994327;28;20034;-69
2021/03/03 11:23:02;;;;;;;25.50;12.02;;;12.60;43.20;;;;;;4993940;28;20101;-69
2021/03/03 11:25:28;;;;;;;27.08;11.90;;;12.60;42.90;;;;;;4992778;28;20038;-70
2021/03/03 11:27:54;;;;;;;28.00;15.35;;;12.70;43.00;;;;;;4993603;28;20503;-70
2021/03/03 11:30:20;;;;;;;27.50;12.23;;;12.80;42.20;;;;;;4993926;28;20642;-69
2021/03/03 11:32:45;;;;;;;21.98;11.43;;;12.80;41.00;;;;;;4993795;28;20101;-71
2021/03/03 11:35:11;;;;;;;26.73;13.57;;;12.90;39.80;;;;;;4993958;28;20117;-70
2021/03/03 11:37:37;;;;;;;23.95;11.27;;;13.00;40.50;;;;;;4980259;28;20271;-70
2021/03/03 11:40:04;;;;;;;24.20;11.27;;;13.10;41.40;;;;;;4992825;28;20476;-70
2021/03/03 11:42:30;;;;;;;24.77;12.05;;;13.20;41.10;;;;;;4980280;28;20033;-69
2021/03/03 11:44:55;;;;;;;27.98;14.82;;;13.30;39.60;;;;;;4993468;28;20109;-69
2021/03/03 11:47:21;;;;;;;29.67;14.35;;;13.40;39.40;;;;;;4993669;28;20530;-71
2021/03/03 11:49:47;;;;;;;28.85;11.55;;;13.40;39.50;;;;;;4976182;28;20507;-69
2021/03/03 11:52:13;;;;;;;28.60;13.57;;;13.40;38.80;;;;;;4976830;28;20049;-73
2021/03/03 11:54:38;;;;;;;30.10;14.15;;;13.50;39.40;;;;;;4993524;28;20097;-69
2021/03/03 11:57:04;;;;;;;30.13;14.93;;;13.50;39.10;;;;;;4994182;28;20396;-76
2021/03/03 11:59:30;;;;;;;39.13;17.67;;;13.60;39.20;;;;;;4976362;28;20098;-81
2021/03/03 12:01:58;;;;;;;42.50;18.48;;;13.70;39.80;;;;;;4991378;28;20042;-81
2021/03/03 12:04:24;;;;;;;34.15;15.73;;;13.70;39.80;;;;;;4976791;28;20022;-81
2021/03/03 12:06:50;;;;;;;25.33;13.00;;;13.80;39.80;;;;;;4994689;28;20043;-76
2021/03/03 12:09:15;;;;;;;26.98;13.05;;;13.80;38.80;;;;;;4993699;28;20030;-76
2021/03/03 12:11:41;;;;;;;33.75;14.20;;;13.80;38.00;;;;;;4973839;28;20026;-76
2021/03/03 12:14:07;;;;;;;23.27;11.30;;;13.90;37.90;;;;;;4991837;28;20034;-76
2021/03/03 12:16:32;;;;;;;33.97;15.00;;;13.90;37.90;;;;;;4991140;28;20029;-77
2021/03/03 12:18:58;;;;;;;34.55;14.60;;;13.90;39.60;;;;;;4974878;28;20617;-77
2021/03/03 12:21:24;;;;;;;32.25;13.88;;;13.90;39.20;;;;;;4975621;28;20042;-77
2021/03/03 12:23:50;;;;;;;39.17;13.98;;;13.90;38.80;;;;;;4992206;28;20030;-76
2021/03/03 12:26:15;;;;;;;37.85;13.88;;;14.00;39.10;;;;;;4992909;28;20034;-77
2021/03/03 12:28:41;;;;;;;34.63;14.90;;;14.10;38.80;;;;;;4991469;28;20026;-76
2021/03/03 12:31:09;;;;;;;34.05;17.75;;;14.10;38.40;;;;;;4992861;28;20033;-76